Time;durP1;ratioP1;P1;durP2;ratioP2;P2;SDS_P1;SDS_P2;PMS_P1;PMS_P2;Temp;Humidity;BMP_temperature;BMP_pressure;BME280_temperature;BME280_humidity;BME280_pressure;Samples;Min_cycle;Max_cycle;Signal;HPM_P1;HPM_P2
2022/12/28 00:01:52;;;;;;;1840.13;349.97;;;4.00;99.90;;;;;;5043333;28;20210;-51
2022/12/28 00:04:20;;;;;;;1999.90;691.17;;;4.00;99.90;;;;;;5033704;28;20242;-51
2022/12/28 00:06:49;;;;;;;1999.90;492.80;;;4.00;99.90;;;;;;5041295;28;20200;-51
2022/12/28 00:09:17;;;;;;;855.93;189.47;;;4.00;99.90;;;;;;5032266;28;20304;-52
2022/12/28 00:11:45;;;;;;;1999.90;556.83;;;4.10;99.90;;;;;;5037875;28;20215;-52
2022/12/28 00:14:15;;;;;;;1993.30;406.70;;;4.00;99.90;;;;;;5031869;28;20230;-52
2022/12/28 00:16:43;;;;;;;1537.13;317.90;;;4.10;99.90;;;;;;5045610;28;20229;-51
2022/12/28 00:19:13;;;;;;;1999.90;411.47;;;4.10;99.90;;;;;;5050431;28;20640;-51
2022/12/28 00:21:42;;;;;;;1423.60;284.57;;;4.10;99.90;;;;;;5051278;28;20235;-51
2022/12/28 00:24:18;;;;;;;1810.10;336.87;;;4.20;99.90;;;;;;5042887;28;20233;-51
2022/12/28 00:26:46;;;;;;;1156.13;273.73;;;4.10;99.90;;;;;;5043880;28;20294;-52
2022/12/28 00:29:16;;;;;;;1376.23;296.13;;;4.20;99.90;;;;;;5049117;28;20216;-51
2022/12/28 00:31:44;;;;;;;1104.00;228.70;;;4.10;99.90;;;;;;5045572;28;20932;-52
2022/12/28 00:34:13;;;;;;;1262.97;246.53;;;4.20;99.90;;;;;;5047934;28;20667;-51
2022/12/28 00:36:41;;;;;;;1888.77;419.70;;;4.10;99.90;;;;;;5045156;28;20264;-52
2022/12/28 00:39:29;;;;;;;1639.73;328.00;;;4.20;99.90;;;;;;5049586;28;20210;-52
2022/12/28 00:41:57;;;;;;;1459.50;290.33;;;4.20;99.90;;;;;;5050527;28;20624;-52
2022/12/28 00:44:27;;;;;;;1086.97;240.57;;;4.20;99.90;;;;;;5050309;28;20233;-52
2022/12/28 00:46:55;;;;;;;171.47;72.10;;;4.20;99.90;;;;;;5043024;28;20599;-51
2022/12/28 00:49:23;;;;;;;169.40;72.70;;;4.20;99.90;;;;;;5046608;28;20210;-52
2022/12/28 00:51:51;;;;;;;273.87;76.23;;;4.30;99.90;;;;;;5050317;28;20304;-51
2022/12/28 00:54:19;;;;;;;496.73;112.90;;;4.30;99.90;;;;;;5050004;28;20762;-51
2022/12/28 00:56:47;;;;;;;452.00;143.43;;;4.30;99.90;;;;;;5045319;28;20202;-52
2022/12/28 00:59:16;;;;;;;73.97;43.23;;;4.30;99.90;;;;;;5034326;28;20248;-51
2022/12/28 01:01:45;;;;;;;83.90;41.63;;;4.40;99.90;;;;;;5041162;28;20293;-51
2022/12/28 01:04:14;;;;;;;547.90;134.90;;;4.40;99.90;;;;;;5031074;28;20263;-50
2022/12/28 01:06:42;;;;;;;1817.57;304.70;;;4.40;99.90;;;;;;5040343;28;20236;-52
2022/12/28 01:09:10;;;;;;;146.80;58.83;;;4.40;99.90;;;;;;5033167;28;20275;-52
2022/12/28 01:11:38;;;;;;;164.63;60.37;;;4.40;99.90;;;;;;5039451;28;20246;-52
2022/12/28 01:14:06;;;;;;;1551.73;268.67;;;4.40;99.90;;;;;;5033579;28;20257;-51
2022/12/28 01:16:36;;;;;;;1999.90;520.63;;;4.30;99.90;;;;;;5040153;28;20730;-51
2022/12/28 01:19:07;;;;;;;1999.90;428.57;;;4.30;99.90;;;;;;5049963;28;20716;-52
2022/12/28 01:21:36;;;;;;;1999.90;439.47;;;4.30;99.90;;;;;;5049774;28;20263;-51
2022/12/28 01:24:06;;;;;;;1000.37;205.57;;;4.30;99.90;;;;;;5049848;28;20312;-52
2022/12/28 01:26:35;;;;;;;852.03;177.90;;;4.30;99.90;;;;;;5050548;28;20649;-52
2022/12/28 01:29:03;;;;;;;651.70;112.87;;;4.20;99.90;;;;;;5036819;28;20260;-51
2022/12/28 01:31:32;;;;;;;474.20;115.00;;;4.30;99.90;;;;;;5049947;28;20215;-51
2022/12/28 01:34:01;;;;;;;621.27;149.43;;;4.30;99.90;;;;;;5049609;28;20800;-52
2022/12/28 01:36:33;;;;;;;1249.17;236.77;;;4.30;99.90;;;;;;5049619;28;20217;-51
2022/12/28 01:39:04;;;;;;;1419.20;288.83;;;4.40;99.90;;;;;;5049643;28;20684;-51
2022/12/28 01:41:35;;;;;;;1847.13;340.97;;;4.40;99.90;;;;;;5049251;28;20264;-52
2022/12/28 01:44:37;;;;;;;477.37;128.57;;;4.30;99.90;;;;;;5049550;28;20266;-52
2022/12/28 01:47:09;;;;;;;1408.07;301.37;;;4.30;99.90;;;;;;5049706;28;20265;-52
2022/12/28 01:49:42;;;;;;;1405.80;276.97;;;4.30;99.90;;;;;;5049510;28;20658;-52
2022/12/28 01:52:14;;;;;;;1802.80;301.37;;;4.20;99.90;;;;;;5048956;28;20646;-52
2022/12/28 01:54:46;;;;;;;1999.90;406.13;;;4.20;99.90;;;;;;5048060;28;20265;-51
2022/12/28 01:57:16;;;;;;;1059.83;245.30;;;4.30;99.90;;;;;;5044114;28;20209;-51
2022/12/28 01:59:49;;;;;;;1474.60;283.13;;;4.30;99.90;;;;;;5049413;28;20335;-52
2022/12/28 02:02:17;;;;;;;1980.03;438.80;;;4.30;99.90;;;;;;5049488;28;20732;-52
2022/12/28 02:04:47;;;;;;;448.23;119.47;;;4.30;99.90;;;;;;5049417;28;20928;-52
2022/12/28 02:07:24;;;;;;;618.47;106.13;;;4.30;99.90;;;;;;5049450;28;20239;-52
2022/12/28 02:09:53;;;;;;;113.63;49.17;;;4.30;99.90;;;;;;5049567;28;20213;-52
2022/12/28 02:12:41;;;;;;;200.73;44.23;;;4.30;99.90;;;;;;5048274;28;20767;-52
2022/12/28 02:15:10;;;;;;;253.10;64.73;;;4.40;99.90;;;;;;5048397;28;20216;-52
2022/12/28 02:17:39;;;;;;;1510.90;269.43;;;4.40;99.90;;;;;;5047862;28;20320;-52
2022/12/28 02:20:08;;;;;;;1396.77;226.57;;;4.40;99.90;;;;;;5047734;28;20216;-52
2022/12/28 02:22:55;;;;;;;1669.30;276.67;;;4.40;99.90;;;;;;5047392;28;20302;-52
2022/12/28 02:25:52;;;;;;;801.47;177.50;;;4.40;99.90;;;;;;5048362;28;20260;-51
2022/12/28 02:28:44;;;;;;;1999.90;492.07;;;4.40;99.90;;;;;;5048027;28;20240;-52
2022/12/28 02:31:16;;;;;;;1215.93;226.73;;;4.40;99.90;;;;;;5048600;28;20237;-52
2022/12/28 02:33:49;;;;;;;727.27;163.50;;;4.40;99.90;;;;;;5049246;28;20230;-52
2022/12/28 02:36:23;;;;;;;1286.60;275.33;;;4.40;99.90;;;;;;5048589;28;20746;-52
2022/12/28 02:38:55;;;;;;;1791.13;327.87;;;4.40;99.90;;;;;;5049045;28;20217;-51
2022/12/28 02:41:25;;;;;;;595.27;151.47;;;4.40;99.90;;;;;;5048748;28;20240;-51
2022/12/28 02:43:55;;;;;;;1683.33;323.20;;;4.40;99.90;;;;;;5048675;28;20316;-51
2022/12/28 02:52:13;;;;;;;1677.87;291.50;;;4.40;99.90;;;;;;5048074;28;20243;-52
2022/12/28 02:58:15;;;;;;;672.17;135.23;;;4.40;99.90;;;;;;5034808;28;20271;-52
2022/12/28 03:00:56;;;;;;;1062.90;224.17;;;4.40;99.90;;;;;;5047128;28;20291;-51
2022/12/28 03:03:33;;;;;;;737.23;163.53;;;4.40;99.90;;;;;;5047864;28;20209;-51
2022/12/28 03:09:03;;;;;;;535.20;124.40;;;4.40;99.90;;;;;;5048582;28;20213;-52
2022/12/28 03:11:39;;;;;;;1390.30;246.60;;;4.50;99.90;;;;;;5048813;28;20291;-53
2022/12/28 03:14:10;;;;;;;1555.03;271.27;;;4.50;99.90;;;;;;5048075;28;21020;-52
2022/12/28 03:31:05;;;;;;;371.80;84.10;;;4.40;99.90;;;;;;5004533;28;20959;-52
2022/12/28 03:33:38;;;;;;;1818.93;392.33;;;4.40;99.90;;;;;;5048001;28;20641;-51
2022/12/28 03:36:11;;;;;;;1999.90;542.67;;;4.40;99.90;;;;;;5051529;28;20225;-52
2022/12/28 03:38:49;;;;;;;951.60;198.40;;;4.30;99.90;;;;;;5052447;28;20266;-52
2022/12/28 03:41:23;;;;;;;724.37;160.90;;;4.40;99.90;;;;;;5049171;28;20246;-51
2022/12/28 03:43:55;;;;;;;467.33;118.97;;;4.40;99.90;;;;;;5052132;28;20225;-52
2022/12/28 03:46:28;;;;;;;1999.90;557.37;;;4.40;99.90;;;;;;5052189;28;20298;-52
2022/12/28 03:48:59;;;;;;;1774.80;327.80;;;4.40;99.90;;;;;;5052254;28;20220;-51
2022/12/28 03:51:30;;;;;;;1051.57;184.77;;;4.40;99.90;;;;;;5051204;28;20240;-52
2022/12/28 03:53:58;;;;;;;1144.97;216.60;;;4.40;99.90;;;;;;5040607;28;20226;-52
2022/12/28 03:56:28;;;;;;;1523.30;238.40;;;4.40;99.90;;;;;;5051997;28;20289;-51
2022/12/28 03:58:57;;;;;;;1548.07;262.10;;;4.40;99.90;;;;;;5051867;28;20264;-52
2022/12/28 04:01:25;;;;;;;1257.43;243.13;;;4.40;99.90;;;;;;5051939;28;20290;-52
2022/12/28 04:03:53;;;;;;;742.03;167.37;;;4.40;99.90;;;;;;5037473;28;20237;-51
2022/12/28 04:06:22;;;;;;;1208.93;255.50;;;4.50;99.90;;;;;;5051329;28;20279;-52
2022/12/28 04:08:50;;;;;;;1999.90;454.13;;;4.40;99.90;;;;;;5051571;28;20251;-52
2022/12/28 04:11:19;;;;;;;105.77;56.37;;;4.30;99.90;;;;;;5051931;28;20244;-51
2022/12/28 04:13:47;;;;;;;1842.70;281.50;;;4.40;99.90;;;;;;5051502;28;20277;-52
2022/12/28 04:16:15;;;;;;;1199.57;218.27;;;4.40;99.90;;;;;;5051536;28;20729;-52
2022/12/28 04:18:43;;;;;;;863.30;177.57;;;4.30;99.90;;;;;;5050881;28;20221;-52
2022/12/28 04:21:13;;;;;;;638.57;163.47;;;4.40;99.90;;;;;;5050639;28;20252;-52
2022/12/28 04:23:44;;;;;;;1366.90;247.03;;;4.40;99.90;;;;;;5050456;28;20247;-51
2022/12/28 04:26:14;;;;;;;1999.90;446.30;;;4.40;99.90;;;;;;5049872;28;20230;-52
2022/12/28 04:28:43;;;;;;;1999.90;332.37;;;4.40;99.90;;;;;;5050042;28;20244;-51
2022/12/28 04:31:13;;;;;;;140.67;63.43;;;4.40;99.90;;;;;;5038805;28;20737;-52
2022/12/28 04:33:41;;;;;;;833.20;224.30;;;4.40;99.90;;;;;;5051301;28;20228;-52
2022/12/28 04:36:12;;;;;;;438.20;104.53;;;4.40;99.90;;;;;;5049930;28;20252;-51
2022/12/28 04:38:41;;;;;;;1999.90;538.40;;;4.40;99.90;;;;;;5050409;28;20255;-51
2022/12/28 04:41:12;;;;;;;243.97;73.93;;;4.40;99.90;;;;;;5050370;28;20458;-52
2022/12/28 04:43:40;;;;;;;809.67;210.20;;;4.40;99.90;;;;;;5050278;28;20334;-52
2022/12/28 04:46:12;;;;;;;640.13;121.87;;;4.40;99.90;;;;;;5048574;28;20268;-51
2022/12/28 04:48:40;;;;;;;1999.90;430.57;;;4.40;99.90;;;;;;5050642;28;20212;-52
2022/12/28 04:51:11;;;;;;;515.40;143.80;;;4.40;99.90;;;;;;5041852;28;20719;-52
2022/12/28 04:53:39;;;;;;;1999.90;378.00;;;4.50;99.90;;;;;;5050709;28;20674;-52
2022/12/28 04:56:10;;;;;;;1999.90;586.70;;;4.40;99.90;;;;;;5050298;28;20202;-52
2022/12/28 04:58:38;;;;;;;1372.13;223.83;;;4.40;99.90;;;;;;5037260;28;20241;-52
2022/12/28 05:01:08;;;;;;;1268.50;246.97;;;4.40;99.90;;;;;;5050388;28;20306;-52
2022/12/28 05:03:37;;;;;;;1999.90;358.07;;;4.50;99.90;;;;;;5049738;28;20228;-52
2022/12/28 05:06:10;;;;;;;1999.90;341.60;;;4.50;99.90;;;;;;5050274;28;20710;-52
2022/12/28 05:08:38;;;;;;;1127.87;189.70;;;4.50;99.90;;;;;;5036645;28;20212;-52
2022/12/28 05:11:09;;;;;;;1304.40;212.60;;;4.50;99.90;;;;;;5050505;28;20300;-52
2022/12/28 05:13:38;;;;;;;1789.10;320.93;;;4.50;99.90;;;;;;5050436;28;20489;-52
2022/12/28 05:16:08;;;;;;;1999.90;394.07;;;4.50;99.90;;;;;;5049677;28;20292;-53
2022/12/28 05:18:36;;;;;;;1974.07;388.17;;;4.50;99.90;;;;;;5049958;28;20221;-52
2022/12/28 05:21:06;;;;;;;1999.90;470.97;;;4.60;99.90;;;;;;5049867;28;20213;-52
2022/12/28 05:23:37;;;;;;;553.47;118.63;;;4.60;99.90;;;;;;5049124;28;20221;-52
2022/12/28 05:26:06;;;;;;;1626.73;292.30;;;4.60;99.90;;;;;;5049580;28;20263;-52
2022/12/28 05:28:34;;;;;;;1202.97;215.90;;;4.60;99.90;;;;;;5050273;28;20656;-52
2022/12/28 05:31:06;;;;;;;1999.90;430.83;;;4.60;99.90;;;;;;5049851;28;20205;-52
2022/12/28 05:33:35;;;;;;;1999.90;465.27;;;4.60;99.90;;;;;;5045297;28;20600;-53
2022/12/28 05:36:05;;;;;;;1682.63;298.00;;;4.60;99.90;;;;;;5049158;28;20221;-52
2022/12/28 05:38:33;;;;;;;688.03;148.13;;;4.60;99.90;;;;;;5049702;28;20202;-52
2022/12/28 05:41:05;;;;;;;1999.90;338.50;;;4.60;99.90;;;;;;5049922;28;20211;-52
2022/12/28 05:43:34;;;;;;;747.13;202.07;;;4.60;99.90;;;;;;5049330;28;20730;-53
2022/12/28 05:46:05;;;;;;;1432.13;200.73;;;4.70;99.90;;;;;;5049834;28;20225;-51
2022/12/28 05:48:34;;;;;;;854.90;238.80;;;4.70;99.90;;;;;;5049691;28;20622;-52
2022/12/28 05:51:04;;;;;;;1569.83;294.30;;;4.70;99.90;;;;;;5049689;28;20225;-53
2022/12/28 05:53:33;;;;;;;969.23;201.23;;;4.70;99.90;;;;;;5050027;28;20266;-52
2022/12/28 05:56:03;;;;;;;412.90;118.17;;;4.70;99.90;;;;;;5049224;28;20233;-52
2022/12/28 05:58:33;;;;;;;1103.77;214.00;;;4.80;99.90;;;;;;5049592;28;20215;-52
2022/12/28 06:01:08;;;;;;;1999.90;319.03;;;4.80;99.90;;;;;;5049717;28;20554;-52
2022/12/28 06:03:38;;;;;;;1999.90;304.50;;;4.80;99.90;;;;;;5036229;28;20231;-51
2022/12/28 06:06:08;;;;;;;254.20;64.87;;;4.80;99.90;;;;;;5048714;28;20558;-52
2022/12/28 06:08:38;;;;;;;1999.90;567.07;;;4.80;99.90;;;;;;5048414;28;20221;-51
2022/12/28 06:11:09;;;;;;;1999.90;396.97;;;4.80;99.90;;;;;;5048568;28;20209;-51
2022/12/28 06:13:37;;;;;;;931.93;179.00;;;4.80;99.90;;;;;;5048355;28;20225;-53
2022/12/28 06:16:08;;;;;;;1999.90;322.70;;;4.80;99.90;;;;;;5047728;28;20230;-53
2022/12/28 06:18:37;;;;;;;1511.93;260.73;;;4.70;99.90;;;;;;5047812;28;20246;-52
2022/12/28 06:21:08;;;;;;;1999.90;371.27;;;4.80;99.90;;;;;;5047866;28;20288;-52
2022/12/28 06:23:36;;;;;;;671.43;176.67;;;4.80;99.90;;;;;;5047961;28;20225;-52
2022/12/28 06:26:06;;;;;;;516.80;135.27;;;4.80;99.90;;;;;;5045391;28;20761;-52
2022/12/28 06:28:37;;;;;;;1008.83;179.47;;;4.90;99.90;;;;;;5030969;28;20264;-51
2022/12/28 06:31:10;;;;;;;1043.37;179.37;;;4.80;99.90;;;;;;5030542;28;20210;-53
2022/12/28 06:33:38;;;;;;;290.73;80.20;;;4.80;99.90;;;;;;5031411;28;20226;-51
2022/12/28 06:36:12;;;;;;;1064.83;181.67;;;4.90;99.90;;;;;;5028852;28;20225;-52
2022/12/28 06:38:47;;;;;;;865.33;162.57;;;4.90;99.90;;;;;;5032738;28;20576;-52
2022/12/28 06:41:17;;;;;;;1549.20;239.27;;;4.90;99.90;;;;;;5028853;28;20392;-52
2022/12/28 06:43:46;;;;;;;101.47;54.40;;;4.90;99.90;;;;;;5029950;28;20284;-51
2022/12/28 06:46:17;;;;;;;462.63;112.37;;;4.90;99.90;;;;;;5032848;28;20256;-52
2022/12/28 06:48:46;;;;;;;823.63;216.60;;;4.90;99.90;;;;;;5030050;28;20264;-52
2022/12/28 06:51:15;;;;;;;1635.77;273.60;;;5.00;99.90;;;;;;5028209;28;20409;-53
2022/12/28 06:53:44;;;;;;;837.80;198.33;;;5.00;99.90;;;;;;5047607;28;20252;-52
2022/12/28 06:56:14;;;;;;;559.10;131.00;;;5.00;99.90;;;;;;5047563;28;20233;-52
2022/12/28 06:58:43;;;;;;;880.90;217.37;;;5.00;99.90;;;;;;5047352;28;20229;-52
2022/12/28 07:01:17;;;;;;;400.77;68.47;;;5.10;99.90;;;;;;5046866;28;20269;-53
2022/12/28 07:03:47;;;;;;;894.20;144.47;;;5.10;99.90;;;;;;5044763;28;20221;-52
2022/12/28 07:06:17;;;;;;;1999.90;423.60;;;5.20;99.90;;;;;;5047221;28;20426;-52
2022/12/28 07:08:45;;;;;;;1146.20;208.03;;;5.10;99.90;;;;;;5045125;28;20321;-52
2022/12/28 07:11:15;;;;;;;1509.03;246.80;;;5.20;99.90;;;;;;5050859;28;20290;-52
2022/12/28 07:13:44;;;;;;;126.23;55.03;;;5.20;99.90;;;;;;5051620;28;20230;-51
2022/12/28 07:16:14;;;;;;;311.73;82.03;;;5.20;99.90;;;;;;5049965;28;20230;-52
2022/12/28 07:18:45;;;;;;;320.27;82.47;;;5.30;99.90;;;;;;5050834;28;20212;-52
2022/12/28 07:21:15;;;;;;;1379.70;229.33;;;5.20;99.90;;;;;;5051341;28;20296;-52
2022/12/28 07:23:43;;;;;;;451.93;93.07;;;5.20;99.90;;;;;;5050779;28;20312;-52
2022/12/28 07:26:13;;;;;;;632.30;108.60;;;5.20;99.90;;;;;;5051731;28;20292;-52
2022/12/28 07:28:44;;;;;;;1450.83;260.57;;;5.20;99.90;;;;;;5052340;28;20209;-53
2022/12/28 07:31:15;;;;;;;687.03;128.90;;;5.20;99.90;;;;;;5047689;28;20297;-52
2022/12/28 07:33:46;;;;;;;863.77;161.73;;;5.30;99.90;;;;;;5049574;28;20253;-52
2022/12/28 07:36:16;;;;;;;1999.90;489.73;;;5.20;99.90;;;;;;5049874;28;21983;-52
2022/12/28 07:38:45;;;;;;;1368.93;221.27;;;5.20;99.90;;;;;;5049136;28;20296;-51
2022/12/28 07:41:15;;;;;;;476.90;110.97;;;5.20;99.90;;;;;;5049089;28;20230;-53
2022/12/28 07:43:43;;;;;;;1112.33;190.80;;;5.20;99.90;;;;;;5049985;28;20310;-52
2022/12/28 07:46:13;;;;;;;524.00;157.53;;;5.20;99.90;;;;;;5049900;28;20240;-51
2022/12/28 07:48:44;;;;;;;1999.90;401.53;;;5.30;99.90;;;;;;5051200;28;20704;-51
2022/12/28 07:51:14;;;;;;;1999.90;326.53;;;5.30;99.90;;;;;;5050937;28;20211;-51
2022/12/28 07:53:44;;;;;;;1571.10;292.93;;;5.30;99.90;;;;;;5039713;28;20232;-52
2022/12/28 07:56:13;;;;;;;698.67;142.30;;;5.20;99.90;;;;;;5051228;28;20228;-52
2022/12/28 07:58:41;;;;;;;359.47;89.97;;;5.30;99.90;;;;;;5051916;28;20207;-51
2022/12/28 08:01:10;;;;;;;847.50;204.53;;;5.30;99.90;;;;;;5051217;28;20251;-52
2022/12/28 08:03:40;;;;;;;641.10;195.90;;;5.30;99.90;;;;;;5050369;28;20225;-51
2022/12/28 08:06:12;;;;;;;1175.40;227.97;;;5.40;99.90;;;;;;5049025;28;20694;-54
2022/12/28 08:08:41;;;;;;;639.03;141.07;;;5.40;99.90;;;;;;5045407;28;20218;-51
2022/12/28 08:11:13;;;;;;;1924.93;282.30;;;5.30;99.90;;;;;;5046619;28;20253;-52
2022/12/28 08:13:43;;;;;;;1015.07;165.57;;;5.30;99.90;;;;;;5044828;28;20230;-51
2022/12/28 08:16:12;;;;;;;863.17;220.73;;;5.40;99.90;;;;;;5049033;28;20237;-52
2022/12/28 08:18:41;;;;;;;1999.90;515.30;;;5.40;99.90;;;;;;5045931;28;20202;-52
2022/12/28 08:21:12;;;;;;;1678.83;236.63;;;5.40;99.90;;;;;;5048684;28;20210;-52
2022/12/28 08:23:41;;;;;;;1999.90;447.87;;;5.40;99.90;;;;;;5050502;28;20253;-52
2022/12/28 08:26:11;;;;;;;1494.43;265.03;;;5.40;99.90;;;;;;5041922;28;20203;-52
2022/12/28 08:28:41;;;;;;;1989.83;302.13;;;5.40;99.90;;;;;;5042966;28;20231;-52
2022/12/28 08:31:11;;;;;;;1951.90;379.33;;;5.40;99.90;;;;;;5050632;28;20198;-52
2022/12/28 08:33:39;;;;;;;1999.90;358.73;;;5.50;99.90;;;;;;5050437;28;20319;-53
2022/12/28 08:36:10;;;;;;;424.43;89.60;;;5.50;99.90;;;;;;5050107;28;20216;-52
2022/12/28 08:38:40;;;;;;;1749.17;281.50;;;5.50;99.90;;;;;;5042218;28;20199;-52
2022/12/28 08:41:11;;;;;;;1739.37;261.17;;;5.50;99.90;;;;;;5045751;28;20210;-53
2022/12/28 08:43:40;;;;;;;507.33;138.20;;;5.50;99.90;;;;;;5049375;28;20226;-51
2022/12/28 08:46:11;;;;;;;1767.30;319.63;;;5.50;99.90;;;;;;5048260;28;20232;-52
2022/12/28 08:48:40;;;;;;;954.93;195.33;;;5.50;99.90;;;;;;5050444;28;20232;-52
2022/12/28 08:51:12;;;;;;;937.27;152.43;;;5.60;99.90;;;;;;5050671;28;20726;-52
2022/12/28 08:53:40;;;;;;;1999.90;486.83;;;5.60;99.90;;;;;;5046714;28;20230;-51
2022/12/28 08:56:11;;;;;;;1181.67;221.07;;;5.60;99.90;;;;;;5049958;28;20219;-52
2022/12/28 08:58:40;;;;;;;1682.90;252.70;;;5.60;99.90;;;;;;5047820;28;20235;-52
2022/12/28 09:01:10;;;;;;;637.73;135.43;;;5.70;99.90;;;;;;5050607;28;20279;-50
2022/12/28 09:03:40;;;;;;;587.07;139.20;;;5.70;99.90;;;;;;5046865;28;20228;-51
2022/12/28 09:06:11;;;;;;;1587.10;279.30;;;5.70;99.90;;;;;;5045788;28;20472;-51
2022/12/28 09:08:41;;;;;;;502.00;123.47;;;5.70;99.90;;;;;;5045264;28;20980;-52
2022/12/28 09:11:13;;;;;;;1710.10;291.20;;;5.80;99.90;;;;;;5043608;28;20285;-51
2022/12/28 09:13:41;;;;;;;955.83;143.30;;;5.80;99.90;;;;;;5046407;28;20227;-52
2022/12/28 09:16:11;;;;;;;459.63;101.13;;;5.90;99.90;;;;;;5048350;28;20288;-51
2022/12/28 09:18:41;;;;;;;1999.90;437.57;;;5.80;99.90;;;;;;5033584;28;20239;-52
2022/12/28 09:21:13;;;;;;;1268.33;257.23;;;5.80;99.90;;;;;;5047932;28;20270;-52
2022/12/28 09:23:41;;;;;;;1899.27;310.23;;;5.90;99.90;;;;;;5048091;28;20316;-51
2022/12/28 09:26:10;;;;;;;1618.03;236.33;;;5.90;99.90;;;;;;5049538;28;20206;-52
2022/12/28 09:28:39;;;;;;;1633.80;308.03;;;5.90;99.90;;;;;;5049218;28;20239;-52
2022/12/28 09:31:08;;;;;;;1999.90;311.43;;;5.90;99.90;;;;;;5047455;28;20244;-53
2022/12/28 09:36:44;;;;;;;1999.90;545.33;;;6.00;99.90;;;;;;5032973;28;20672;-52
2022/12/28 09:39:16;;;;;;;1087.87;195.53;;;6.10;99.90;;;;;;5033451;28;20270;-52
2022/12/28 09:41:48;;;;;;;1400.13;241.27;;;6.10;99.90;;;;;;5036385;28;20231;-51
2022/12/28 09:44:34;;;;;;;1269.63;214.03;;;6.10;99.90;;;;;;5032760;28;20224;-53
2022/12/28 09:47:12;;;;;;;1350.00;238.00;;;6.20;99.90;;;;;;5043419;28;20289;-52
2022/12/28 09:49:46;;;;;;;1180.73;246.10;;;6.20;99.90;;;;;;5042556;28;20269;-51
2022/12/28 09:52:27;;;;;;;1999.90;428.33;;;6.20;99.90;;;;;;5045432;28;20289;-53
2022/12/28 09:55:05;;;;;;;1968.33;422.50;;;6.30;99.90;;;;;;5047447;28;20272;-52
2022/12/28 09:57:37;;;;;;;1999.90;965.25;;;6.30;99.90;;;;;;5046392;28;21067;-52
2022/12/28 10:00:08;;;;;;;1999.90;469.70;;;6.60;99.90;;;;;;5041510;28;20230;-52
2022/12/28 10:02:39;;;;;;;1999.90;373.77;;;6.50;99.90;;;;;;5047481;28;20257;-52
2022/12/28 10:05:09;;;;;;;1999.90;393.10;;;6.50;99.90;;;;;;5038847;28;20781;-52
2022/12/28 10:07:38;;;;;;;1986.10;271.90;;;6.50;99.90;;;;;;5044958;28;20683;-52
2022/12/28 10:10:07;;;;;;;1999.90;543.90;;;6.60;99.90;;;;;;5048411;28;20331;-52
2022/12/28 10:12:35;;;;;;;1350.70;187.70;;;6.60;99.90;;;;;;5048737;28;20258;-53
2022/12/28 10:15:10;;;;;;;1999.90;387.20;;;6.60;99.90;;;;;;5032830;28;20225;-53
2022/12/28 10:17:39;;;;;;;1999.90;581.13;;;6.60;99.90;;;;;;5032098;28;20213;-52
2022/12/28 10:20:14;;;;;;;745.10;151.97;;;6.60;99.90;;;;;;5033439;28;20233;-52
2022/12/28 10:22:45;;;;;;;1999.90;383.73;;;6.70;99.90;;;;;;5028754;28;20261;-53
2022/12/28 10:25:20;;;;;;;1999.90;429.23;;;6.70;99.90;;;;;;5046263;28;20224;-53
2022/12/28 10:27:49;;;;;;;1999.90;399.03;;;6.70;99.90;;;;;;5047406;28;20268;-52
2022/12/28 10:30:19;;;;;;;1953.27;299.17;;;6.80;99.90;;;;;;5046227;28;20666;-52
2022/12/28 10:32:53;;;;;;;1859.63;331.87;;;6.80;99.90;;;;;;5046810;28;20275;-52
2022/12/28 10:35:33;;;;;;;1535.30;348.10;;;6.80;99.90;;;;;;5046990;28;20232;-52
2022/12/28 10:38:06;;;;;;;558.10;185.33;;;6.80;99.90;;;;;;5045184;28;20261;-52
2022/12/28 10:40:38;;;;;;;1119.80;236.17;;;6.90;99.90;;;;;;5046786;28;20236;-53
2022/12/28 10:43:06;;;;;;;1999.90;398.17;;;6.90;99.90;;;;;;5047193;28;20215;-52
2022/12/28 10:45:55;;;;;;;1999.90;351.87;;;6.90;99.90;;;;;;5046533;28;20559;-52
2022/12/28 10:48:27;;;;;;;1999.90;389.00;;;6.90;99.90;;;;;;5048564;28;20264;-52
2022/12/28 10:50:57;;;;;;;1999.90;494.20;;;6.90;99.90;;;;;;5048754;28;20299;-53
2022/12/28 10:53:30;;;;;;;911.33;209.20;;;6.90;99.90;;;;;;5048516;28;20245;-53
2022/12/28 10:56:05;;;;;;;1999.90;612.67;;;6.90;99.90;;;;;;5047892;28;20814;-53
2022/12/28 10:58:34;;;;;;;1999.90;526.50;;;7.00;99.90;;;;;;5041199;28;20202;-53
2022/12/28 11:01:07;;;;;;;1999.90;472.97;;;7.00;99.90;;;;;;5041683;28;20293;-52
2022/12/28 11:03:37;;;;;;;1999.90;550.50;;;7.00;99.90;;;;;;5043345;28;20230;-52
2022/12/28 11:06:10;;;;;;;1999.90;345.43;;;7.00;99.90;;;;;;5046323;28;20209;-53
2022/12/28 11:08:40;;;;;;;1999.90;490.20;;;7.00;99.90;;;;;;5045547;28;20276;-52
2022/12/28 11:11:17;;;;;;;1999.90;447.17;;;7.00;99.90;;;;;;5047308;28;20829;-53
2022/12/28 11:13:50;;;;;;;1999.90;487.47;;;7.00;99.90;;;;;;5048427;28;20275;-52
2022/12/28 11:16:18;;;;;;;910.57;156.77;;;7.00;99.90;;;;;;5047833;28;20255;-52
2022/12/28 11:18:46;;;;;;;1999.90;619.40;;;7.00;99.90;;;;;;5048729;28;20212;-53
2022/12/28 11:21:19;;;;;;;1999.90;499.50;;;7.10;99.90;;;;;;5048045;28;20263;-52
2022/12/28 11:23:50;;;;;;;1999.90;487.10;;;7.10;99.90;;;;;;5047995;28;20225;-53
2022/12/28 11:26:19;;;;;;;1999.90;725.03;;;7.10;99.90;;;;;;5048420;28;20270;-53
2022/12/28 11:28:50;;;;;;;1999.90;715.77;;;7.10;99.90;;;;;;5048488;28;20283;-52
2022/12/28 11:31:23;;;;;;;1972.03;300.17;;;7.10;99.90;;;;;;5048006;28;20281;-52
2022/12/28 11:33:54;;;;;;;1999.90;443.00;;;7.10;99.90;;;;;;5048550;28;20234;-51
2022/12/28 11:36:25;;;;;;;1999.90;497.53;;;7.10;99.90;;;;;;5047695;28;20244;-52
2022/12/28 11:38:56;;;;;;;1999.90;392.17;;;7.20;99.90;;;;;;5047623;28;20238;-53
2022/12/28 11:41:44;;;;;;;1962.47;330.77;;;7.20;99.90;;;;;;5043084;28;20217;-52
2022/12/28 11:44:54;;;;;;;1999.90;353.37;;;7.10;99.90;;;;;;5045891;28;20240;-53
2022/12/28 11:47:31;;;;;;;1955.93;325.50;;;7.10;99.90;;;;;;5048078;28;20244;-52
2022/12/28 11:50:42;;;;;;;807.47;169.23;;;7.10;99.90;;;;;;5047909;28;20271;-52
2022/12/28 11:53:36;;;;;;;1999.90;481.20;;;7.20;99.90;;;;;;5039837;28;20231;-52
2022/12/28 11:56:09;;;;;;;1416.90;210.97;;;7.20;99.90;;;;;;5048896;28;20699;-52
2022/12/28 11:59:03;;;;;;;1999.90;419.80;;;7.30;99.90;;;;;;5051134;28;20677;-52
2022/12/28 12:01:45;;;;;;;1999.90;426.23;;;7.30;99.90;;;;;;5045756;28;20750;-52
2022/12/28 12:04:33;;;;;;;1672.53;330.23;;;7.30;99.90;;;;;;5047854;28;20230;-52
2022/12/28 12:07:45;;;;;;;1999.90;547.13;;;7.40;99.90;;;;;;5051044;28;20657;-51
2022/12/28 12:10:34;;;;;;;1999.90;630.30;;;7.50;99.90;;;;;;5050264;28;20245;-53
2022/12/28 12:13:43;;;;;;;1999.90;421.07;;;7.60;99.90;;;;;;5050594;28;20205;-52
2022/12/28 12:16:26;;;;;;;1999.90;612.87;;;7.60;99.90;;;;;;5049825;28;20247;-52
2022/12/28 12:18:57;;;;;;;1999.90;500.17;;;7.60;99.90;;;;;;5049585;28;20297;-53
2022/12/28 12:21:31;;;;;;;1999.90;493.90;;;7.70;99.90;;;;;;5050800;28;20209;-52
2022/12/28 12:24:20;;;;;;;1999.90;791.70;;;7.70;99.90;;;;;;5051295;28;20226;-52
2022/12/28 12:26:52;;;;;;;1999.90;399.93;;;7.80;99.90;;;;;;5047450;28;20259;-53
2022/12/28 12:29:29;;;;;;;1999.90;626.97;;;7.90;99.90;;;;;;5051162;28;20325;-53
2022/12/28 12:32:01;;;;;;;1965.87;338.83;;;7.90;99.90;;;;;;5050173;28;20236;-53
2022/12/28 12:34:39;;;;;;;1999.90;491.63;;;8.10;99.90;;;;;;5050916;28;20286;-53
2022/12/28 12:37:44;;;;;;;1999.90;716.27;;;8.10;99.90;;;;;;5046324;28;20212;-53
2022/12/28 12:40:37;;;;;;;1999.90;665.73;;;8.10;99.90;;;;;;5044610;28;20209;-52
2022/12/28 12:43:18;;;;;;;1999.90;426.63;;;8.20;99.90;;;;;;5048739;28;20209;-53
2022/12/28 12:45:55;;;;;;;1999.90;497.00;;;8.20;99.90;;;;;;5049176;28;20800;-52
2022/12/28 12:48:58;;;;;;;1999.90;866.70;;;8.20;99.90;;;;;;5048621;28;20690;-53
2022/12/28 12:51:32;;;;;;;1999.90;706.60;;;8.20;99.90;;;;;;5049051;28;20758;-52
2022/12/28 12:54:20;;;;;;;1878.93;342.13;;;8.20;99.90;;;;;;5049759;28;20237;-53
2022/12/28 12:56:54;;;;;;;1999.90;665.97;;;8.20;99.90;;;;;;5043431;28;20292;-52
2022/12/28 12:59:35;;;;;;;1999.90;536.83;;;8.10;99.90;;;;;;5049918;28;20267;-52
2022/12/28 13:02:30;;;;;;;1999.90;894.70;;;8.10;99.90;;;;;;5050360;28;20241;-53
2022/12/28 13:05:02;;;;;;;1999.90;443.80;;;8.10;99.90;;;;;;5049641;28;20233;-53
2022/12/28 13:07:32;;;;;;;871.37;159.77;;;8.10;99.90;;;;;;5049101;28;20233;-53